Time;durP1;ratioP1;P1;durP2;ratioP2;P2;SDS_P1;SDS_P2;PMS_P1;PMS_P2;Temp;Humidity;BMP_temperature;BMP_pressure;BME280_temperature;BME280_humidity;BME280_pressure;Samples;Min_cycle;Max_cycle;Signal;HPM_P1;HPM_P2
2022/10/19 00:01:25;;;;;;;3.00;2.40;;;20.10;92.10;;;19.90;58.51;99449.75;5066142;28;20119;-77
2022/10/19 00:03:54;;;;;;;5.38;2.85;;;20.10;92.10;;;19.87;58.29;99447.66;5085008;28;20039;-77
2022/10/19 00:06:29;;;;;;;2.95;2.58;;;20.10;92.10;;;19.92;58.80;99446.66;5069482;28;20048;-77
2022/10/19 00:09:16;;;;;;;3.83;3.17;;;20.10;92.30;;;19.91;58.89;99453.31;5064214;28;20032;-77
2022/10/19 00:11:45;;;;;;;2.92;2.63;;;20.10;92.30;;;19.90;58.81;99455.25;5076689;28;20036;-77
2022/10/19 00:14:13;;;;;;;2.60;2.40;;;20.10;92.30;;;19.88;58.67;99451.22;5084488;28;20147;-77
2022/10/19 00:16:40;;;;;;;3.10;2.45;;;20.10;92.20;;;19.91;58.70;99453.31;5065831;28;20466;-77
2022/10/19 00:19:08;;;;;;;4.50;2.63;;;20.10;92.20;;;19.89;58.62;99447.31;5084238;28;20107;-77
2022/10/19 00:21:34;;;;;;;3.97;3.20;;;20.10;92.20;;;19.86;58.88;99454.28;5054267;28;20378;-77
2022/10/19 00:24:00;;;;;;;4.80;2.63;;;20.10;92.20;;;19.88;59.05;99448.47;5086335;28;20567;-77
2022/10/19 00:26:26;;;;;;;3.33;2.28;;;20.10;92.40;;;19.89;59.26;99444.56;5047885;28;20043;-77
2022/10/19 00:28:54;;;;;;;3.35;2.67;;;20.10;92.40;;;19.89;58.72;99450.06;5071037;28;20061;-77
2022/10/19 00:31:20;;;;;;;2.88;2.30;;;20.10;92.20;;;19.91;58.74;99442.31;5072942;28;20046;-77
2022/10/19 00:33:46;;;;;;;2.33;1.92;;;20.10;92.20;;;19.89;58.64;99456.38;5054139;28;20066;-77
2022/10/19 00:36:31;;;;;;;2.58;2.38;;;20.10;92.20;;;19.88;58.67;99451.22;5082604;28;20453;-77
2022/10/19 00:38:57;;;;;;;2.10;2.00;;;20.10;92.20;;;19.90;58.89;99447.00;5076880;28;20489;-77
2022/10/19 00:41:26;;;;;;;5.40;2.33;;;20.10;92.30;;;19.91;58.92;99442.31;5065717;28;20747;-77
2022/10/19 00:44:06;;;;;;;2.97;2.35;;;20.10;92.40;;;19.88;59.12;99442.94;5086413;28;20467;-77
2022/10/19 00:46:35;;;;;;;3.15;2.30;;;20.10;92.30;;;19.86;58.81;99445.22;5081052;28;20136;-76
2022/10/19 00:49:11;;;;;;;2.30;2.10;;;20.10;92.30;;;19.86;58.84;99446.00;5067616;28;20044;-77
2022/10/19 00:51:40;;;;;;;3.03;1.83;;;20.10;92.30;;;19.84;58.80;99441.94;5099835;28;20042;-76
2022/10/19 00:54:06;;;;;;;3.03;2.47;;;20.10;92.30;;;19.87;58.93;99436.63;5080063;28;20055;-76
2022/10/19 00:56:32;;;;;;;3.45;2.50;;;20.10;92.30;;;19.89;58.83;99436.31;5054914;28;20565;-76
2022/10/19 00:58:58;;;;;;;2.00;1.80;;;20.10;92.40;;;19.85;59.17;99435.34;5051202;28;20036;-76
2022/10/19 01:01:24;;;;;;;2.28;2.08;;;20.10;92.40;;;19.88;58.90;99438.25;5073894;28;20041;-76
2022/10/19 01:03:50;;;;;;;3.85;2.33;;;20.10;92.30;;;19.87;58.99;99430.28;5064737;28;20115;-77
2022/10/19 01:06:17;;;;;;;2.60;2.38;;;20.10;92.30;;;19.86;58.73;99426.75;5078086;28;20040;-76
2022/10/19 01:08:43;;;;;;;2.42;2.00;;;20.10;92.30;;;19.85;58.86;99425.13;5072601;28;20120;-76
2022/10/19 01:11:44;;;;;;;2.33;2.13;;;20.10;92.30;;;19.86;59.19;99425.94;5071761;28;20387;-77
2022/10/19 01:14:16;;;;;;;2.70;2.20;;;20.10;92.40;;;19.86;59.40;99412.97;5088026;28;20464;-76
2022/10/19 01:17:22;;;;;;;2.10;2.00;;;20.10;92.40;;;19.82;59.12;99406.50;5097673;28;20040;-76
2022/10/19 01:20:14;;;;;;;2.30;1.90;;;20.10;92.30;;;19.83;59.10;99397.09;5102689;28;20043;-76
2022/10/19 01:23:17;;;;;;;6.78;2.30;;;20.10;92.30;;;19.81;59.06;99391.09;5070267;28;20031;-77
2022/10/19 01:26:02;;;;;;;2.83;2.33;;;20.10;92.30;;;19.82;58.99;99395.50;5104850;28;20122;-77
2022/10/19 01:28:50;;;;;;;1.85;1.75;;;20.00;92.30;;;19.83;59.35;99399.84;5090383;28;20039;-77
2022/10/19 01:32:02;;;;;;;6.68;2.45;;;20.00;92.40;;;19.82;59.32;99400.16;5075295;28;20162;-77
2022/10/19 01:34:39;;;;;;;2.35;2.15;;;20.00;92.40;;;19.82;59.15;99409.25;5077862;28;20045;-76
2022/10/19 01:37:34;;;;;;;2.40;2.20;;;20.00;92.30;;;19.84;58.98;99403.41;5057250;28;20156;-76
2022/10/19 01:40:05;;;;;;;2.53;1.73;;;20.00;92.30;;;19.81;59.14;99401.31;5087359;28;20099;-76
2022/10/19 01:42:41;;;;;;;2.05;1.95;;;20.00;92.30;;;19.82;59.13;99401.00;5088204;28;20046;-76
2022/10/19 01:45:26;;;;;;;2.22;1.98;;;20.00;92.30;;;19.85;59.37;99396.78;5075905;28;20104;-76
2022/10/19 01:47:57;;;;;;;2.33;2.10;;;20.10;92.50;;;19.85;59.18;99400.34;5072886;28;20051;-77
2022/10/19 01:50:38;;;;;;;2.25;2.05;;;20.00;92.40;;;19.83;59.19;99393.53;5086051;28;20032;-77
2022/10/19 01:53:05;;;;;;;2.50;1.90;;;20.00;92.30;;;19.83;59.19;99399.06;5091099;28;20056;-76
2022/10/19 01:55:31;;;;;;;1.80;1.70;;;20.00;92.30;;;19.81;59.14;99395.81;5061317;28;20875;-77
2022/10/19 01:58:03;;;;;;;2.15;1.90;;;20.00;92.30;;;19.80;59.39;99400.50;5050950;28;20089;-77
2022/10/19 02:00:30;;;;;;;2.22;2.00;;;20.00;92.30;;;19.81;59.65;99404.06;5085987;28;20048;-76
2022/10/19 02:02:56;;;;;;;2.05;1.73;;;20.00;92.50;;;19.81;59.59;99396.59;5067337;28;20046;-76
2022/10/19 02:05:25;;;;;;;3.85;1.85;;;20.00;92.50;;;19.84;59.39;99392.41;5074727;28;20111;-76
2022/10/19 02:08:00;;;;;;;2.67;2.08;;;20.00;92.40;;;19.81;59.54;99377.34;5074808;28;20044;-76
2022/10/19 02:10:26;;;;;;;1.77;1.67;;;20.00;92.40;;;19.81;59.31;99380.09;5068708;28;20050;-76
2022/10/19 02:12:53;;;;;;;2.60;1.90;;;20.00;92.40;;;19.81;59.26;99385.59;5054408;28;20047;-76
2022/10/19 02:15:21;;;;;;;3.05;2.25;;;20.00;92.40;;;19.81;59.32;99382.84;5067631;28;20059;-77
2022/10/19 02:17:49;;;;;;;2.33;1.98;;;20.00;92.50;;;19.81;59.31;99382.03;5074055;28;20114;-76
2022/10/19 02:20:15;;;;;;;1.38;1.30;;;20.00;92.50;;;19.83;59.32;99393.53;5069270;28;20111;-76
2022/10/19 02:22:41;;;;;;;2.10;1.90;;;20.00;92.50;;;19.82;59.29;99389.16;5070733;28;20042;-76
2022/10/19 02:25:08;;;;;;;2.40;1.85;;;20.00;92.40;;;19.81;59.41;99393.84;5052296;28;20039;-76
2022/10/19 02:27:34;;;;;;;2.05;1.92;;;20.00;92.40;;;19.81;59.33;99390.28;5058637;28;20089;-77
2022/10/19 02:30:00;;;;;;;2.85;2.15;;;20.00;92.40;;;19.77;59.55;99392.06;5077733;28;20035;-77
2022/10/19 02:32:26;;;;;;;2.10;1.75;;;19.90;92.40;;;19.80;59.66;99385.94;5083574;28;20032;-77
2022/10/19 02:34:52;;;;;;;2.45;2.08;;;20.00;92.60;;;19.82;59.68;99383.66;5069929;28;20044;-76
2022/10/19 02:37:37;;;;;;;2.05;1.70;;;20.00;92.60;;;19.79;59.61;99376.84;5075800;28;20528;-76
2022/10/19 02:40:04;;;;;;;2.00;1.75;;;20.00;92.50;;;19.78;59.44;99368.91;5071112;28;20044;-76
2022/10/19 02:42:41;;;;;;;2.10;1.77;;;20.00;92.50;;;19.79;59.45;99368.59;5066080;28;20047;-76
2022/10/19 02:45:25;;;;;;;4.57;1.88;;;20.00;92.40;;;19.76;59.55;99368.44;5056277;28;20047;-76
2022/10/19 02:48:06;;;;;;;1.88;1.77;;;20.00;92.50;;;19.77;59.74;99365.38;5055423;28;20057;-76
2022/10/19 02:50:32;;;;;;;3.13;2.00;;;19.90;92.50;;;19.78;59.77;99358.72;5058703;28;20477;-76
2022/10/19 02:52:58;;;;;;;2.30;1.58;;;20.00;92.60;;;19.80;59.79;99363.91;5045204;28;20031;-76
2022/10/19 02:55:25;;;;;;;2.17;2.00;;;20.00;92.60;;;19.81;59.42;99371.03;5057775;28;20064;-77
2022/10/19 02:57:50;;;;;;;2.03;1.83;;;20.00;92.50;;;19.79;59.47;99374.09;5056491;28;20051;-76
2022/10/19 03:00:17;;;;;;;1.88;1.70;;;20.00;92.50;;;19.78;59.43;99371.69;5099992;28;20044;-76
2022/10/19 03:03:02;;;;;;;2.13;1.80;;;20.00;92.40;;;19.77;59.67;99370.03;5060117;28;20146;-77
2022/10/19 03:05:28;;;;;;;2.00;1.90;;;20.00;92.40;;;19.77;59.90;99375.53;5070580;28;20161;-77
2022/10/19 03:07:54;;;;;;;2.15;1.95;;;20.00;92.60;;;19.79;59.71;99367.78;5067756;28;20031;-77
2022/10/19 03:10:20;;;;;;;2.35;1.85;;;20.00;92.60;;;19.79;59.74;99370.53;5083609;28;20048;-77
2022/10/19 03:12:46;;;;;;;2.10;1.42;;;20.00;92.60;;;19.78;59.68;99371.69;5069307;28;20078;-77
2022/10/19 03:15:15;;;;;;;1.80;1.70;;;20.00;92.50;;;19.76;59.50;99373.94;5085867;28;20040;-77
2022/10/19 03:17:41;;;;;;;2.40;1.73;;;19.90;92.40;;;19.77;59.60;99368.13;5070238;28;20040;-77
2022/10/19 03:20:08;;;;;;;1.70;1.60;;;20.00;92.40;;;19.75;59.85;99370.38;5070708;28;20119;-77
2022/10/19 03:22:34;;;;;;;1.75;1.65;;;20.00;92.60;;;19.77;59.92;99368.13;5073291;28;20040;-77
2022/10/19 03:25:00;;;;;;;2.53;2.08;;;20.00;92.60;;;19.80;59.80;99363.91;5069597;28;20042;-77
2022/10/19 03:27:26;;;;;;;1.83;1.70;;;20.00;92.60;;;19.76;59.82;99360.97;5082893;28;20399;-77
2022/10/19 03:29:52;;;;;;;1.63;1.52;;;20.00;92.50;;;19.75;59.64;99361.31;5088277;28;20035;-77
2022/10/19 03:32:19;;;;;;;1.65;1.55;;;20.00;92.50;;;19.77;59.64;99361.78;5069174;28;20047;-76
2022/10/19 03:34:46;;;;;;;2.20;2.00;;;20.00;92.50;;;19.77;59.29;99365.38;5076270;28;20659;-76
2022/10/19 03:37:13;;;;;;;2.15;1.95;;;20.00;92.50;;;19.78;59.77;99366.97;5054034;28;20048;-76
2022/10/19 03:39:40;;;;;;;1.50;1.40;;;20.00;92.60;;;19.79;59.82;99370.53;5087770;28;20479;-77
2022/10/19 03:42:06;;;;;;;5.28;2.17;;;20.00;92.60;;;19.78;59.94;99371.69;5084764;28;20463;-76
2022/10/19 03:44:32;;;;;;;2.50;2.30;;;20.00;92.50;;;19.77;59.77;99370.03;5073369;28;20504;-76
2022/10/19 03:46:58;;;;;;;2.10;1.90;;;20.00;92.50;;;19.75;59.91;99362.13;5048662;28;20035;-76
2022/10/19 03:49:24;;;;;;;2.10;1.67;;;20.00;92.50;;;19.76;59.50;99369.22;5050722;28;20046;-77
2022/10/19 03:51:50;;;;;;;1.80;1.70;;;19.90;92.40;;;19.76;59.69;99355.47;5051442;28;20040;-77
2022/10/19 03:54:16;;;;;;;1.48;1.38;;;20.00;92.60;;;19.76;59.45;99357.41;5044083;28;20047;-77
2022/10/19 03:56:43;;;;;;;1.95;1.77;;;20.00;92.40;;;19.73;59.42;99354.16;5049282;28;20050;-77
2022/10/19 03:59:13;;;;;;;1.80;1.70;;;20.00;92.30;;;19.77;59.04;99353.53;5055013;28;20769;-77
2022/10/19 04:01:42;;;;;;;1.90;1.80;;;20.00;92.30;;;19.75;59.18;99347.56;5047196;28;20041;-77
2022/10/19 04:04:18;;;;;;;2.53;1.92;;;20.00;92.20;;;19.75;59.42;99350.31;5054950;28;20403;-77
2022/10/19 04:06:45;;;;;;;5.57;1.73;;;20.00;92.50;;;19.72;59.73;99340.75;5050155;28;20108;-77
2022/10/19 04:09:14;;;;;;;1.73;1.63;;;20.00;92.50;;;19.73;59.45;99340.41;5049269;28;20120;-76
2022/10/19 04:11:40;;;;;;;1.95;1.80;;;20.00;92.40;;;19.72;59.13;99341.56;5049229;28;20052;-77
2022/10/19 04:14:07;;;;;;;1.83;1.73;;;20.00;92.20;;;19.75;58.90;99342.84;5045111;28;20040;-77
2022/10/19 04:16:33;;;;;;;1.70;1.60;;;19.90;92.10;;;19.75;58.92;99339.28;5036529;28;20038;-76
2022/10/19 04:19:00;;;;;;;2.08;1.98;;;20.00;92.20;;;19.72;59.08;99344.31;5035783;28;20036;-76
2022/10/19 04:21:32;;;;;;;1.73;1.63;;;20.00;92.30;;;19.75;59.37;99350.31;5064225;28;20044;-76
2022/10/19 04:24:01;;;;;;;1.55;1.45;;;20.00;92.50;;;19.72;59.61;99341.56;5083378;28;20058;-77
2022/10/19 04:26:27;;;;;;;2.13;1.80;;;20.00;92.50;;;19.73;58.94;99343.16;5046829;28;20040;-77
2022/10/19 04:28:59;;;;;;;1.95;1.65;;;19.90;92.20;;;19.71;58.99;99339.91;5065534;28;20050;-77
2022/10/19 04:31:26;;;;;;;1.58;1.48;;;19.90;92.20;;;19.74;58.81;99343.97;5041124;28;20048;-77
2022/10/19 04:33:52;;;;;;;2.00;1.90;;;19.90;92.20;;;19.73;58.67;99347.88;5035165;28;20053;-76
2022/10/19 04:36:18;;;;;;;1.65;1.55;;;19.90;92.10;;;19.70;59.27;99343.00;5030449;28;20051;-77
2022/10/19 04:38:44;;;;;;;1.58;1.48;;;19.90;92.40;;;19.70;59.63;99343.00;5053076;28;20089;-76
2022/10/19 04:41:12;;;;;;;1.90;1.80;;;19.90;92.40;;;19.69;59.46;99344.94;5061311;28;20045;-76
2022/10/19 04:43:38;;;;;;;2.03;1.83;;;19.90;92.40;;;19.70;59.08;99343.81;5023417;28;20054;-76
2022/10/19 04:46:09;;;;;;;2.00;1.90;;;19.90;92.20;;;19.69;58.93;99341.38;5069049;27;20559;-77
2022/10/19 04:48:37;;;;;;;1.97;1.73;;;19.90;92.20;;;19.72;58.62;99338.81;5106321;27;20628;-76
2022/10/19 04:51:03;;;;;;;2.35;1.88;;;19.90;92.10;;;19.69;58.84;99338.63;5069575;27;20036;-76
2022/10/19 04:53:29;;;;;;;1.80;1.48;;;19.90;92.20;;;19.68;59.34;99342.50;5056481;28;20063;-77
2022/10/19 04:55:55;;;;;;;1.80;1.70;;;19.90;92.40;;;19.67;59.48;99333.44;5070802;27;20043;-77
2022/10/19 04:58:21;;;;;;;1.67;1.58;;;19.80;92.40;;;19.67;59.36;99347.22;5072661;27;20058;-77
2022/10/19 05:00:47;;;;;;;1.70;1.60;;;19.90;92.30;;;19.71;58.53;99344.63;5073565;28;20046;-77
2022/10/19 05:03:14;;;;;;;3.35;1.98;;;19.90;92.20;;;19.71;58.75;99344.63;5075520;28;20151;-77
2022/10/19 05:05:40;;;;;;;1.85;1.75;;;19.90;92.20;;;19.67;58.72;99343.66;5059808;27;20096;-77
2022/10/19 05:08:06;;;;;;;3.50;2.13;;;19.80;92.20;;;19.69;58.65;99344.13;5056524;28;20051;-77
2022/10/19 05:10:32;;;;;;;2.10;1.73;;;19.80;92.30;;;19.66;59.60;99339.22;5073441;28;20039;-77
2022/10/19 05:13:01;;;;;;;2.03;1.73;;;19.80;92.40;;;19.67;59.90;99346.41;5070543;28;20493;-77
2022/10/19 05:15:28;;;;;;;1.65;1.55;;;19.80;92.50;;;19.66;58.90;99341.97;5082125;28;20463;-77
2022/10/19 05:17:54;;;;;;;2.10;1.90;;;19.80;92.20;;;19.69;58.58;99347.69;5083022;28;20036;-77
2022/10/19 05:20:20;;;;;;;2.25;1.90;;;19.80;92.20;;;19.69;58.89;99355.13;5086260;28;20044;-78
2022/10/19 05:22:47;;;;;;;1.83;1.73;;;19.80;92.20;;;19.72;58.38;99349.81;5063621;28;20036;-78
2022/10/19 05:25:12;;;;;;;2.47;2.10;;;19.80;92.20;;;19.67;59.06;99349.16;5065022;28;20115;-79
2022/10/19 05:27:39;;;;;;;2.13;1.98;;;19.80;92.30;;;19.64;59.42;99342.31;5084443;28;20040;-78
2022/10/19 05:30:07;;;;;;;2.10;1.90;;;19.80;92.50;;;19.63;59.35;99343.44;5052939;28;20046;-77
2022/10/19 05:32:34;;;;;;;2.58;2.33;;;19.80;92.50;;;19.65;58.79;99335.69;5100968;27;20036;-78
2022/10/19 05:35:00;;;;;;;1.98;1.88;;;19.80;92.20;;;19.69;58.37;99339.44;5053924;28;20056;-77
2022/10/19 05:37:26;;;;;;;4.55;2.10;;;19.80;92.20;;;19.69;58.34;99346.88;5085949;28;20040;-77
2022/10/19 05:39:54;;;;;;;1.67;1.58;;;19.80;92.20;;;19.67;58.48;99349.97;5055569;28;20044;-77
2022/10/19 05:42:20;;;;;;;3.22;2.00;;;19.70;92.20;;;19.62;59.47;99355.59;5067080;28;20489;-77
2022/10/19 05:44:46;;;;;;;1.70;1.60;;;19.70;92.40;;;19.67;59.38;99360.97;5063284;28;20418;-77
2022/10/19 05:47:12;;;;;;;1.73;1.63;;;19.80;92.50;;;19.67;58.96;99357.41;5068954;28;20040;-77
2022/10/19 05:49:38;;;;;;;2.00;1.75;;;19.80;92.30;;;19.71;58.60;99358.38;5030521;28;20097;-77
2022/10/19 05:52:04;;;;;;;2.40;2.05;;;19.80;92.10;;;19.68;58.24;99351.56;5028940;28;20050;-77
2022/10/19 05:54:30;;;;;;;3.00;1.90;;;19.80;92.20;;;19.69;58.82;99349.63;5063744;28;20491;-77
2022/10/19 05:57:01;;;;;;;1.80;1.70;;;19.80;92.20;;;19.69;58.63;99364.22;5032023;28;20434;-78
2022/10/19 05:59:27;;;;;;;1.75;1.30;;;19.80;92.20;;;19.66;58.59;99364.00;5033979;28;20128;-78
2022/10/19 06:01:53;;;;;;;1.88;1.77;;;19.80;92.20;;;19.67;58.96;99362.91;5046825;28;20032;-78
2022/10/19 06:04:19;;;;;;;2.35;1.58;;;19.80;92.20;;;19.66;59.30;99375.00;5029518;28;20468;-78
2022/10/19 06:06:45;;;;;;;1.80;1.65;;;19.80;92.40;;;19.69;59.33;99366.97;5060887;28;20054;-78
2022/10/19 06:09:11;;;;;;;2.00;1.60;;;19.80;92.50;;;19.70;59.31;99370.53;5031035;28;20402;-78
2022/10/19 06:11:39;;;;;;;1.52;1.42;;;19.80;92.50;;;19.71;59.12;99367.44;5065853;28;20035;-78
2022/10/19 06:14:08;;;;;;;1.90;1.80;;;19.80;92.40;;;19.69;59.06;99371.63;5053450;28;20045;-78
2022/10/19 06:16:34;;;;;;;1.80;1.67;;;19.80;92.40;;;19.70;58.73;99365.81;5048772;28;20131;-78
2022/10/19 06:19:00;;;;;;;3.50;1.98;;;19.80;92.40;;;19.71;58.86;99370.19;5061724;28;20043;-78
2022/10/19 06:21:28;;;;;;;1.83;1.63;;;19.80;92.40;;;19.70;59.37;99374.09;5051324;28;20487;-78
2022/10/19 06:23:57;;;;;;;1.70;1.60;;;19.80;92.50;;;19.73;59.32;99376.19;5061737;28;20518;-78
2022/10/19 06:26:23;;;;;;;1.83;1.73;;;19.80;92.50;;;19.70;59.19;99376.03;5064657;28;20052;-78
2022/10/19 06:28:50;;;;;;;1.90;1.80;;;19.80;92.50;;;19.71;58.99;99374.88;5049046;28;20044;-78
2022/10/19 06:31:16;;;;;;;1.95;1.80;;;19.80;92.40;;;19.75;59.00;99375.88;5064916;28;20095;-78
2022/10/19 06:33:43;;;;;;;2.15;1.75;;;19.80;92.40;;;19.75;58.57;99380.59;5047132;28;20036;-78
2022/10/19 06:36:15;;;;;;;3.05;1.70;;;19.80;92.40;;;19.78;59.04;99374.44;5046590;28;20097;-77
2022/10/19 06:38:41;;;;;;;1.40;1.35;;;19.90;92.50;;;19.82;59.05;99378.97;5063660;28;20362;-78
2022/10/19 06:41:07;;;;;;;1.85;1.75;;;19.90;92.50;;;19.80;58.85;99380.44;5023646;28;20134;-78
2022/10/19 06:43:34;;;;;;;1.50;1.40;;;19.90;92.50;;;19.82;58.78;99383.66;5051835;28;20040;-78
2022/10/19 06:46:11;;;;;;;1.40;1.30;;;19.90;92.40;;;19.82;58.74;99383.66;5039705;28;20115;-78
2022/10/19 06:48:37;;;;;;;1.30;1.30;;;19.90;92.40;;;19.81;58.62;99382.84;5055142;28;20032;-78
2022/10/19 06:51:06;;;;;;;1.58;1.48;;;19.90;92.40;;;19.80;58.49;99386.75;5065680;28;20414;-78
2022/10/19 06:53:33;;;;;;;1.85;1.75;;;19.90;92.30;;;19.80;59.06;99389.50;5064534;28;20043;-78
2022/10/19 06:56:01;;;;;;;1.90;1.75;;;19.90;92.50;;;19.78;59.14;99394.50;5099864;28;20044;-78
2022/10/19 06:58:27;;;;;;;1.98;1.63;;;19.90;92.60;;;19.79;58.88;99385.09;5066983;28;20071;-78
2022/10/19 07:00:56;;;;;;;1.85;1.75;;;19.90;92.50;;;19.81;58.86;99396.59;5071470;28;20043;-78
2022/10/19 07:03:23;;;;;;;1.83;1.65;;;19.90;92.50;;;19.82;58.61;99389.16;5063816;28;20463;-78
2022/10/19 07:06:00;;;;;;;1.80;1.70;;;19.90;92.40;;;19.81;58.39;99390.28;5065218;28;20051;-78
2022/10/19 07:08:27;;;;;;;1.38;1.35;;;19.90;92.40;;;19.83;58.81;99393.53;5053640;28;20433;-78
2022/10/19 07:10:56;;;;;;;1.77;1.67;;;19.90;92.50;;;19.86;58.69;99401.16;5046251;28;20450;-78
2022/10/19 07:13:22;;;;;;;1.95;1.63;;;19.90;92.50;;;19.85;58.85;99413.31;5087336;28;20044;-78
2022/10/19 07:15:48;;;;;;;1.38;1.27;;;19.90;92.50;;;19.82;58.65;99411.19;5071733;28;20044;-78
2022/10/19 07:18:14;;;;;;;3.83;1.65;;;19.90;92.40;;;19.81;58.56;99406.81;5066335;28;20040;-78
2022/10/19 07:20:41;;;;;;;1.92;1.75;;;19.90;92.30;;;19.80;58.65;99410.72;5046897;28;20399;-78
2022/10/19 07:23:07;;;;;;;1.30;1.25;;;19.90;92.30;;;19.80;58.67;99407.97;5057596;28;20122;-78
2022/10/19 07:25:34;;;;;;;2.05;1.95;;;19.90;92.30;;;19.77;59.07;99425.09;5066208;28;20123;-78
2022/10/19 07:28:00;;;;;;;1.65;1.55;;;19.90;92.40;;;19.76;59.09;99418.78;5081061;28;20044;-78
2022/10/19 07:30:26;;;;;;;1.67;1.58;;;19.90;92.40;;;19.78;59.22;99423.97;5082402;28;20044;-78
2022/10/19 07:32:52;;;;;;;2.35;1.30;;;19.90;92.40;;;19.81;58.82;99418.63;5067204;28;20123;-78
2022/10/19 07:35:19;;;;;;;1.48;1.38;;;20.00;92.30;;;19.87;58.43;99424.78;5082389;28;20056;-78
2022/10/19 07:37:44;;;;;;;1.45;1.45;;;19.90;92.30;;;19.90;58.13;99429.69;5088919;28;20048;-78
2022/10/19 07:40:11;;;;;;;1.80;1.70;;;20.00;92.30;;;19.93;58.21;99423.53;5063954;28;20052;-78
2022/10/19 07:42:38;;;;;;;1.67;1.58;;;20.00;92.30;;;19.94;58.39;99422.38;5061046;28;20819;-78
2022/10/19 07:45:04;;;;;;;1.50;1.40;;;20.00;92.40;;;19.98;58.27;99426.13;5062586;28;20462;-77
2022/10/19 07:47:30;;;;;;;1.90;1.80;;;20.00;92.30;;;19.95;58.02;99419.31;5088026;28;20051;-77
2022/10/19 07:49:56;;;;;;;2.58;1.60;;;20.00;92.20;;;19.93;58.06;99426.28;5054713;28;20043;-78
2022/10/19 07:52:22;;;;;;;1.58;1.45;;;20.00;92.20;;;19.91;58.23;99425.78;5068171;28;20092;-78
2022/10/19 07:54:49;;;;;;;1.45;1.10;;;20.00;92.20;;;19.88;58.31;99420.94;5097736;28;20116;-78
2022/10/19 07:57:15;;;;;;;2.15;1.90;;;20.00;92.10;;;19.92;58.25;99410.88;5082415;28;20483;-78
2022/10/19 07:59:41;;;;;;;1.52;1.42;;;20.00;92.20;;;19.96;58.26;99411.88;5065273;28;20059;-78
2022/10/19 08:02:14;;;;;;;1.77;1.67;;;20.00;92.30;;;19.93;58.26;99413.31;5057561;28;20048;-78
2022/10/19 08:04:40;;;;;;;1.48;1.38;;;20.00;92.20;;;19.97;57.83;99413.47;5067608;28;20459;-78
2022/10/19 08:07:06;;;;;;;1.60;1.50;;;20.10;92.20;;;19.98;58.01;99417.06;5083365;28;20047;-77
2022/10/19 08:09:32;;;;;;;1.92;1.75;;;20.10;92.20;;;19.94;57.92;99414.13;5065093;28;20142;-78
2022/10/19 08:11:58;;;;;;;3.70;1.88;;;20.00;92.10;;;19.92;58.42;99416.38;5065725;28;20042;-78
2022/10/19 08:14:25;;;;;;;1.92;1.73;;;20.10;92.20;;;19.95;58.16;99415.75;5063310;28;20387;-78
2022/10/19 08:16:51;;;;;;;1.60;1.50;;;20.00;92.20;;;20.03;57.99;99409.47;5051949;28;20458;-78
2022/10/19 08:19:17;;;;;;;1.63;1.50;;;20.10;92.20;;;20.07;57.54;99413.16;5063280;28;20619;-78
2022/10/19 08:21:45;;;;;;;3.00;1.75;;;20.10;92.10;;;20.05;57.50;99415.47;5080256;28;20042;-78
2022/10/19 08:24:13;;;;;;;1.33;1.23;;;20.10;92.10;;;20.09;57.31;99415.63;5067234;28;20047;-78
2022/10/19 08:26:39;;;;;;;1.70;1.52;;;20.10;92.00;;;20.11;57.33;99421.63;5063052;28;20032;-78
2022/10/19 08:29:11;;;;;;;1.90;1.33;;;20.10;92.00;;;20.12;57.17;99417.72;5049492;28;20052;-77
2022/10/19 08:31:40;;;;;;;2.53;2.05;;;20.20;92.10;;;20.11;57.39;99413.34;5082110;28;20046;-78
2022/10/19 08:34:06;;;;;;;2.20;1.73;;;20.20;92.10;;;20.08;57.54;99408.50;5083151;28;20070;-78
2022/10/19 08:36:34;;;;;;;1.67;1.58;;;20.20;92.10;;;20.03;57.73;99406.69;5065514;28;20046;-77
2022/10/19 08:39:02;;;;;;;1.70;1.60;;;20.10;92.00;;;20.01;57.44;99402.66;5072379;28;20040;-78
2022/10/19 08:41:40;;;;;;;2.25;1.40;;;20.20;92.00;;;19.97;57.69;99407.97;5063201;28;20055;-77
2022/10/19 08:44:44;;;;;;;1.13;1.10;;;20.10;92.00;;;19.96;57.69;99411.88;5080400;28;20055;-78
2022/10/19 08:47:36;;;;;;;3.10;2.15;;;20.10;92.00;;;19.97;58.10;99418.97;5048636;28;20066;-77
2022/10/19 08:50:27;;;;;;;1.60;1.40;;;20.10;92.10;;;19.95;58.33;99415.75;5075441;28;20054;-78
2022/10/19 08:53:10;;;;;;;1.98;1.30;;;20.20;92.20;;;19.90;58.09;99407.66;5070115;28;20404;-78
2022/10/19 08:55:59;;;;;;;1.60;1.50;;;20.10;92.00;;;19.97;57.69;99418.97;5064928;28;20402;-78
2022/10/19 08:58:46;;;;;;;1.98;1.60;;;20.10;92.00;;;20.04;57.38;99424.84;5090648;28;20445;-78
2022/10/19 09:01:42;;;;;;;1.77;1.55;;;20.20;92.00;;;20.05;57.48;99420.97;5082969;28;20040;-77
2022/10/19 09:04:27;;;;;;;2.50;2.17;;;20.20;92.00;;;20.06;57.62;99425.31;5088043;28;20039;-77
2022/10/19 09:07:44;;;;;;;2.35;1.77;;;20.10;92.10;;;20.05;57.84;99431.97;5068688;28;20118;-78
2022/10/19 09:10:13;;;;;;;2.13;1.67;;;20.20;92.10;;;20.03;57.45;99416.91;5070580;28;20486;-78
2022/10/19 09:12:45;;;;;;;2.92;1.77;;;20.20;92.00;;;20.07;57.30;99417.88;5096646;28;20040;-77
2022/10/19 09:15:15;;;;;;;1.52;1.42;;;20.20;92.00;;;20.09;57.18;99421.94;5098962;28;20044;-77
2022/10/19 09:17:41;;;;;;;4.43;1.85;;;20.20;91.90;;;20.15;56.94;99425.34;5062796;28;20387;-77
2022/10/19 09:20:17;;;;;;;1.73;1.63;;;20.20;91.90;;;20.17;57.29;99428.56;5077230;28;20033;-77
2022/10/19 09:22:43;;;;;;;1.48;1.40;;;20.20;92.00;;;20.16;57.09;99432.47;5080921;28;20123;-78
2022/10/19 09:25:20;;;;;;;1.98;1.63;;;20.20;92.00;;;20.19;56.84;99426.31;5069963;28;20040;-77
2022/10/19 09:27:50;;;;;;;1.60;1.50;;;20.30;91.90;;;20.19;56.67;99425.50;5058304;28;20126;-78
2022/10/19 09:30:21;;;;;;;1.38;1.27;;;20.30;91.90;;;20.21;56.49;99432.31;5084460;28;20490;-78
2022/10/19 09:32:58;;;;;;;1.77;1.40;;;20.30;91.90;;;20.23;56.50;99427.31;5068704;28;20036;-78
2022/10/19 09:35:37;;;;;;;1.30;1.20;;;20.30;91.80;;;20.25;56.67;99429.72;5087004;28;20484;-78
2022/10/19 09:38:05;;;;;;;2.38;1.80;;;20.30;91.90;;;20.29;56.56;99422.44;5069506;28;20099;-77
2022/10/19 09:40:32;;;;;;;2.08;1.92;;;20.30;91.90;;;20.32;56.50;99419.84;5055074;28;20044;-77
2022/10/19 09:43:07;;;;;;;1.77;1.65;;;20.30;91.80;;;20.35;56.18;99424.72;5070270;28;20045;-78
2022/10/19 09:45:58;;;;;;;1.83;1.30;;;20.40;91.80;;;20.36;55.75;99420.03;5058066;28;20048;-78
2022/10/19 09:48:51;;;;;;;1.50;1.40;;;20.40;91.70;;;20.32;55.92;99419.84;5090388;28;20039;-78
2022/10/19 09:51:17;;;;;;;1.85;1.65;;;20.30;91.60;;;20.34;56.20;99428.59;5089219;28;20044;-78
2022/10/19 09:53:49;;;;;;;1.83;1.58;;;20.30;91.70;;;20.29;56.44;99427.94;5071520;28;20066;-78
2022/10/19 09:56:23;;;;;;;1.77;1.52;;;20.30;91.80;;;20.23;56.63;99424.56;5056224;28;20561;-78
2022/10/19 09:58:51;;;;;;;1.65;1.50;;;20.40;91.80;;;20.25;56.33;99429.72;5070611;28;20107;-78
2022/10/19 10:01:38;;;;;;;2.05;1.63;;;20.40;91.70;;;20.21;56.22;99429.56;5086255;28;20051;-78
2022/10/19 10:04:09;;;;;;;1.42;1.10;;;20.40;91.80;;;20.25;56.35;99433.31;5066663;28;20043;-78
2022/10/19 10:06:35;;;;;;;1.48;1.38;;;20.40;91.70;;;20.31;56.28;99422.94;5067572;28;20046;-78
2022/10/19 10:09:02;;;;;;;2.42;1.80;;;20.40;91.80;;;20.28;56.40;99429.09;5091656;28;20063;-78
2022/10/19 10:11:38;;;;;;;1.30;1.20;;;20.40;91.80;;;20.28;56.46;99418.06;5069496;28;20046;-77
2022/10/19 10:14:20;;;;;;;1.40;1.30;;;20.40;91.80;;;20.27;56.13;99421.94;5068944;28;20475;-78
2022/10/19 10:16:46;;;;;;;1.25;1.25;;;20.40;91.60;;;20.29;55.98;99427.94;5058635;28;20039;-77
2022/10/19 10:19:14;;;;;;;1.10;1.10;;;20.40;91.60;;;20.33;56.01;99423.44;5068781;28;20042;-78
2022/10/19 10:21:49;;;;;;;1.67;1.52;;;20.40;91.60;;;20.30;55.83;99424.06;5068510;28;20256;-77
2022/10/19 10:24:18;;;;;;;1.80;1.63;;;20.40;91.60;;;20.31;55.94;99423.75;5059670;28;20058;-78
2022/10/19 10:26:59;;;;;;;1.45;1.27;;;20.40;91.60;;;20.27;56.32;99422.75;5066721;28;20039;-77
2022/10/19 10:29:26;;;;;;;1.52;1.42;;;20.40;91.60;;;20.27;56.23;99421.94;5069295;28;20048;-77
2022/10/19 10:32:05;;;;;;;1.40;1.30;;;20.40;91.50;;;20.31;55.71;99423.75;5084900;28;20470;-77
2022/10/19 10:34:38;;;;;;;1.60;1.50;;;20.40;91.50;;;20.28;56.16;99420.84;5086097;28;20058;-77